Time;durP1;ratioP1;P1;durP2;ratioP2;P2;SDS_P1;SDS_P2;PMS_P1;PMS_P2;Temp;Humidity;BMP_temperature;BMP_pressure;BME280_temperature;BME280_humidity;BME280_pressure;Samples;Min_cycle;Max_cycle;Signal;HPM_P1;HPM_P2
2022/12/24 00:01:08;;;;;;;44.58;11.20;;;5.60;99.90;;;;;;5025704;28;20051;-62
2022/12/24 00:03:36;;;;;;;35.25;11.73;;;5.70;99.90;;;;;;5025500;28;20041;-62
2022/12/24 00:06:14;;;;;;;34.08;10.57;;;5.70;99.90;;;;;;5006985;28;20361;-61
2022/12/24 00:08:40;;;;;;;33.90;11.15;;;5.70;99.90;;;;;;5019510;28;20041;-62
2022/12/24 00:11:06;;;;;;;34.17;11.00;;;5.70;99.90;;;;;;5026037;28;20056;-62
2022/12/24 00:13:33;;;;;;;33.50;11.32;;;5.70;99.90;;;;;;5024747;28;20045;-62
2022/12/24 00:15:59;;;;;;;29.33;10.93;;;5.70;99.90;;;;;;5025244;28;20466;-62
2022/12/24 00:18:25;;;;;;;37.40;10.85;;;5.70;99.90;;;;;;5025271;28;20070;-62
2022/12/24 00:20:51;;;;;;;43.15;10.95;;;5.60;99.90;;;;;;5006973;28;20463;-62
2022/12/24 00:23:17;;;;;;;26.67;9.35;;;5.60;99.90;;;;;;5025442;28;20049;-62
2022/12/24 00:25:44;;;;;;;35.65;11.25;;;5.70;99.90;;;;;;5024842;28;20033;-62
2022/12/24 00:28:10;;;;;;;26.85;9.93;;;5.60;99.90;;;;;;5027398;28;20045;-61
2022/12/24 00:30:40;;;;;;;34.20;10.27;;;5.60;99.90;;;;;;5010758;28;20452;-62
2022/12/24 00:33:09;;;;;;;33.33;11.00;;;5.70;99.90;;;;;;5010868;28;20053;-62
2022/12/24 00:35:37;;;;;;;51.70;11.10;;;5.70;99.90;;;;;;5011177;28;20053;-62
2022/12/24 00:38:03;;;;;;;33.00;11.48;;;5.80;99.90;;;;;;5029018;28;20048;-62
2022/12/24 00:40:30;;;;;;;42.13;11.40;;;5.70;99.90;;;;;;5029335;28;20045;-62
2022/12/24 00:42:56;;;;;;;66.60;13.20;;;5.70;99.90;;;;;;5028023;28;20700;-62
2022/12/24 00:45:22;;;;;;;41.33;11.38;;;5.80;99.90;;;;;;5029025;28;20639;-62
2022/12/24 00:47:48;;;;;;;34.75;10.77;;;5.70;99.90;;;;;;5028228;28;20042;-62
2022/12/24 00:50:14;;;;;;;42.38;11.45;;;5.70;99.90;;;;;;5029092;28;20053;-61
2022/12/24 00:52:40;;;;;;;45.38;11.25;;;5.70;99.90;;;;;;5015640;28;20553;-62
2022/12/24 00:55:06;;;;;;;29.77;10.88;;;5.60;99.90;;;;;;5027323;28;20045;-62
2022/12/24 00:57:32;;;;;;;37.40;10.95;;;5.60;99.90;;;;;;5029030;28;20068;-62
2022/12/24 00:59:58;;;;;;;42.28;11.18;;;5.60;99.90;;;;;;5028386;28;20450;-62
2022/12/24 01:02:24;;;;;;;31.95;11.77;;;5.50;99.90;;;;;;5009167;28;20133;-62
2022/12/24 01:07:36;;;;;;;31.30;10.45;;;5.50;99.90;;;;;;5028607;28;20611;-62
2022/12/24 01:10:02;;;;;;;31.33;10.48;;;5.50;99.90;;;;;;5028380;28;20084;-62
2022/12/24 01:12:28;;;;;;;30.83;10.02;;;5.50;99.90;;;;;;5029017;28;20142;-62
2022/12/24 01:14:53;;;;;;;38.50;10.52;;;5.60;99.90;;;;;;5028396;28;20475;-62
2022/12/24 01:17:19;;;;;;;31.17;9.80;;;5.60;99.90;;;;;;5028136;28;20111;-61
2022/12/24 01:19:45;;;;;;;33.85;10.07;;;5.60;99.90;;;;;;5028712;28;20566;-62
2022/12/24 01:22:11;;;;;;;27.13;9.68;;;5.60;99.90;;;;;;5027859;28;20048;-62
2022/12/24 01:24:37;;;;;;;31.63;9.13;;;5.60;99.90;;;;;;5010880;28;20045;-61
2022/12/24 01:27:02;;;;;;;44.78;9.93;;;5.60;99.90;;;;;;5027698;28;20048;-62
2022/12/24 01:29:29;;;;;;;33.35;10.63;;;5.60;99.90;;;;;;5028686;28;20041;-62
2022/12/24 01:31:54;;;;;;;38.17;10.93;;;5.70;99.90;;;;;;5028267;28;20413;-62
2022/12/24 01:34:20;;;;;;;24.98;10.10;;;5.70;99.90;;;;;;5028188;28;20072;-62
2022/12/24 01:36:45;;;;;;;39.33;10.32;;;5.70;99.90;;;;;;4996769;28;20049;-61
2022/12/24 01:39:11;;;;;;;34.88;9.35;;;5.70;99.90;;;;;;5027151;28;20042;-62
2022/12/24 01:44:25;;;;;;;29.38;10.07;;;5.70;99.90;;;;;;5027612;28;20049;-61
2022/12/24 01:47:07;;;;;;;29.47;9.47;;;5.70;99.90;;;;;;5028154;28;20045;-62
2022/12/24 01:49:34;;;;;;;31.23;9.63;;;5.80;99.90;;;;;;5028246;28;20288;-62
2022/12/24 01:52:07;;;;;;;32.95;10.32;;;5.80;99.90;;;;;;5027415;28;20045;-62
2022/12/24 01:54:36;;;;;;;37.42;10.15;;;5.80;99.90;;;;;;5028365;28;20147;-62
2022/12/24 01:57:21;;;;;;;33.40;10.32;;;5.80;99.90;;;;;;5027027;28;20080;-62
2022/12/24 01:59:50;;;;;;;27.35;10.18;;;5.80;99.90;;;;;;5010058;28;20175;-61
2022/12/24 02:02:17;;;;;;;34.97;10.90;;;5.80;99.90;;;;;;5027299;28;20510;-62
2022/12/24 02:04:53;;;;;;;31.77;9.90;;;5.80;99.90;;;;;;5010039;28;20056;-62
2022/12/24 02:07:19;;;;;;;30.92;10.18;;;5.90;99.90;;;;;;5027038;28;20045;-62
2022/12/24 02:09:48;;;;;;;29.80;10.38;;;5.90;99.90;;;;;;5027213;28;20052;-62
2022/12/24 02:12:14;;;;;;;32.13;10.50;;;5.90;99.90;;;;;;5027313;28;20041;-62
2022/12/24 02:14:40;;;;;;;29.05;10.80;;;5.90;99.90;;;;;;5009299;28;20060;-62
2022/12/24 02:17:24;;;;;;;28.83;9.43;;;5.90;99.90;;;;;;5023639;28;20053;-62
2022/12/24 02:20:21;;;;;;;30.23;9.82;;;5.90;99.90;;;;;;5002597;28;20404;-62
2022/12/24 02:23:02;;;;;;;33.40;11.07;;;5.90;99.90;;;;;;5024267;28;20049;-62
2022/12/24 02:25:33;;;;;;;;;;;6.00;99.90;;;;;;5027754;28;20092;-62
2022/12/24 02:28:07;;;;;;;38.97;10.43;;;6.00;99.90;;;;;;5016693;28;19968;-62
2022/12/24 02:30:42;;;;;;;34.03;10.93;;;5.90;99.90;;;;;;5016721;28;20589;-62
2022/12/24 02:33:25;;;;;;;34.47;10.88;;;6.00;99.90;;;;;;5026351;28;20037;-62
2022/12/24 02:36:05;;;;;;;32.00;10.77;;;6.00;99.90;;;;;;5026333;28;20050;-62
2022/12/24 02:38:44;;;;;;;55.13;11.57;;;6.00;99.90;;;;;;4989698;28;20054;-62
2022/12/24 02:41:19;;;;;;;39.10;11.10;;;6.00;99.90;;;;;;5024232;28;20085;-62
2022/12/24 02:43:47;;;;;;;33.80;10.38;;;6.00;99.90;;;;;;5026731;28;20079;-62
2022/12/24 02:46:20;;;;;;;32.17;10.68;;;5.90;99.90;;;;;;5026939;28;20389;-62
2022/12/24 02:48:48;;;;;;;32.72;10.38;;;5.90;99.90;;;;;;5026707;28;20053;-62
2022/12/24 02:51:14;;;;;;;31.27;11.05;;;5.90;99.90;;;;;;5025641;28;20038;-61
2022/12/24 02:53:40;;;;;;;36.60;11.05;;;5.90;99.90;;;;;;5026223;28;20049;-62
2022/12/24 02:56:30;;;;;;;42.53;10.93;;;5.90;99.90;;;;;;5026158;28;20053;-62
2022/12/24 02:59:22;;;;;;;31.50;10.98;;;6.00;99.90;;;;;;5027393;28;20045;-62
2022/12/24 03:01:59;;;;;;;40.88;11.38;;;6.00;99.90;;;;;;5025445;28;20148;-61
2022/12/24 03:04:39;;;;;;;44.60;11.60;;;6.00;99.90;;;;;;5026047;28;20050;-62
2022/12/24 03:07:23;;;;;;;42.00;11.63;;;6.00;99.90;;;;;;5006256;28;20046;-62
2022/12/24 03:10:20;;;;;;;60.58;12.98;;;6.00;99.90;;;;;;5026266;28;20053;-61
2022/12/24 03:12:51;;;;;;;49.85;13.05;;;6.00;99.90;;;;;;5026159;28;20048;-62
2022/12/24 03:15:19;;;;;;;48.67;11.55;;;6.00;99.90;;;;;;5008366;28;20135;-62
2022/12/24 03:17:47;;;;;;;43.20;12.23;;;6.00;99.90;;;;;;5026201;28;20134;-62
2022/12/24 03:20:21;;;;;;;64.57;14.10;;;6.00;99.90;;;;;;5026067;28;20056;-62
2022/12/24 03:22:47;;;;;;;98.75;15.85;;;6.00;99.90;;;;;;5008418;28;20103;-62
2022/12/24 03:25:13;;;;;;;44.33;12.18;;;6.00;99.90;;;;;;5026392;28;20434;-62
2022/12/24 03:27:40;;;;;;;73.47;13.48;;;5.90;99.90;;;;;;5025853;28;20056;-62
2022/12/24 03:30:11;;;;;;;54.38;13.75;;;6.00;99.90;;;;;;5008669;28;20053;-62
2022/12/24 03:32:37;;;;;;;49.83;13.40;;;6.00;99.90;;;;;;5026000;28;20060;-62
2022/12/24 03:35:03;;;;;;;60.67;14.02;;;6.00;99.90;;;;;;5026094;28;20388;-62
2022/12/24 03:37:29;;;;;;;37.33;13.23;;;6.00;99.90;;;;;;5026120;28;20087;-62
2022/12/24 03:39:55;;;;;;;60.88;13.73;;;6.00;99.90;;;;;;5025362;28;20484;-62
2022/12/24 03:42:21;;;;;;;75.43;14.70;;;6.00;99.90;;;;;;5025883;28;20446;-62
2022/12/24 03:44:47;;;;;;;63.67;14.15;;;6.00;99.90;;;;;;5003696;28;20137;-62
2022/12/24 03:47:13;;;;;;;45.47;12.88;;;6.00;99.90;;;;;;5005600;28;20052;-62
2022/12/24 03:49:39;;;;;;;31.27;11.27;;;6.00;99.90;;;;;;5005261;28;20536;-62
2022/12/24 03:52:04;;;;;;;61.83;13.32;;;6.00;99.90;;;;;;5005358;28;20042;-62
2022/12/24 03:54:30;;;;;;;61.15;14.00;;;6.00;99.90;;;;;;5004929;28;20392;-62
2022/12/24 03:56:56;;;;;;;53.75;13.88;;;6.00;99.90;;;;;;5005240;28;20129;-62
2022/12/24 03:59:22;;;;;;;73.55;14.77;;;6.00;99.90;;;;;;5005476;28;20034;-61
2022/12/24 04:01:49;;;;;;;56.70;14.18;;;6.00;99.90;;;;;;5004259;28;20050;-62
2022/12/24 04:04:14;;;;;;;93.30;16.30;;;6.00;99.90;;;;;;5004337;28;20084;-62
2022/12/24 04:06:40;;;;;;;71.13;14.30;;;6.00;99.90;;;;;;5004843;28;20085;-62
2022/12/24 04:09:06;;;;;;;51.28;13.80;;;6.00;99.90;;;;;;5005081;28;20125;-62
2022/12/24 04:11:32;;;;;;;62.70;14.75;;;6.00;99.90;;;;;;5004766;28;20380;-62
2022/12/24 04:13:58;;;;;;;39.90;14.30;;;6.00;99.90;;;;;;5004769;28;20049;-62
2022/12/24 04:16:24;;;;;;;47.08;15.27;;;6.10;99.90;;;;;;4986987;28;20038;-62
2022/12/24 04:18:49;;;;;;;115.43;20.05;;;6.10;99.90;;;;;;5003444;28;20108;-62
2022/12/24 04:21:15;;;;;;;76.32;17.40;;;6.00;99.90;;;;;;5004923;28;20251;-62
2022/12/24 04:23:42;;;;;;;36.55;13.32;;;6.10;99.90;;;;;;5004622;28;20049;-62
2022/12/24 04:26:10;;;;;;;56.22;15.63;;;6.10;99.90;;;;;;5004849;28;20112;-62
2022/12/24 04:28:36;;;;;;;42.30;15.90;;;6.10;99.90;;;;;;5004445;28;20042;-62
2022/12/24 04:31:07;;;;;;;40.38;16.63;;;6.20;99.90;;;;;;4987023;28;20057;-62
2022/12/24 04:33:34;;;;;;;52.72;20.08;;;6.20;99.90;;;;;;5004984;28;20038;-62
2022/12/24 04:36:01;;;;;;;39.28;15.23;;;6.30;99.90;;;;;;5004842;28;20049;-61
2022/12/24 04:38:27;;;;;;;27.02;12.25;;;6.40;99.90;;;;;;4991043;28;20069;-62
2022/12/24 04:41:13;;;;;;;34.70;14.35;;;6.70;99.90;;;;;;5004669;28;20044;-62
2022/12/24 04:43:39;;;;;;;41.23;14.20;;;6.80;99.90;;;;;;4958575;28;1143055;-62
2022/12/24 04:46:13;;;;;;;39.10;14.70;;;6.90;99.90;;;;;;5025149;28;20073;-62
2022/12/24 04:48:40;;;;;;;95.95;29.83;;;7.00;99.90;;;;;;5010966;28;20128;-62
2022/12/24 04:51:07;;;;;;;54.90;19.45;;;7.10;99.90;;;;;;5025475;28;20120;-62
2022/12/24 04:53:34;;;;;;;68.18;21.23;;;7.10;99.90;;;;;;5006851;28;20029;-62
2022/12/24 04:55:59;;;;;;;50.60;17.02;;;7.10;99.90;;;;;;5025499;28;20045;-62
2022/12/24 04:58:26;;;;;;;32.40;14.23;;;7.10;99.90;;;;;;5003694;28;20659;-63
2022/12/24 05:00:53;;;;;;;24.33;10.30;;;7.20;99.90;;;;;;5017096;28;20034;-62
2022/12/24 05:03:19;;;;;;;31.35;12.98;;;7.20;99.90;;;;;;4991035;28;20141;-62
2022/12/24 05:05:45;;;;;;;54.05;17.20;;;7.20;99.90;;;;;;4994816;28;20049;-62
2022/12/24 05:08:11;;;;;;;31.90;12.65;;;7.20;99.90;;;;;;5025115;28;20126;-62
2022/12/24 05:10:36;;;;;;;42.08;16.40;;;7.30;99.90;;;;;;5006615;28;20167;-63
2022/12/24 05:13:03;;;;;;;45.15;16.73;;;7.40;99.90;;;;;;5025316;28;20049;-62
2022/12/24 05:15:28;;;;;;;26.73;11.10;;;7.40;99.90;;;;;;5027466;28;20046;-62
2022/12/24 05:17:54;;;;;;;31.08;10.50;;;7.50;99.90;;;;;;5028456;28;20033;-63
2022/12/24 05:20:20;;;;;;;13.80;5.00;;;7.50;99.90;;;;;;5010630;28;20041;-62
2022/12/24 05:28:22;;;;;;;22.17;6.47;;;7.60;99.90;;;;;;5015190;28;20132;-63
2022/12/24 05:30:49;;;;;;;20.48;5.60;;;7.70;99.90;;;;;;5028405;28;20120;-63
2022/12/24 05:33:15;;;;;;;30.58;6.20;;;7.80;99.90;;;;;;5006434;28;20045;-62
2022/12/24 05:35:41;;;;;;;31.63;7.25;;;7.80;99.90;;;;;;5019338;28;20045;-62
2022/12/24 05:38:07;;;;;;;23.30;5.18;;;7.80;99.90;;;;;;5028816;28;20391;-62
2022/12/24 05:40:33;;;;;;;20.45;4.80;;;7.80;99.90;;;;;;5027502;28;20446;-62
2022/12/24 05:42:59;;;;;;;30.67;5.68;;;7.80;99.90;;;;;;5008925;28;20041;-62
2022/12/24 05:45:24;;;;;;;46.30;7.20;;;7.80;99.90;;;;;;5027918;28;20352;-62
2022/12/24 05:47:56;;;;;;;19.83;4.32;;;7.80;99.90;;;;;;5028224;28;20045;-62
2022/12/24 05:50:23;;;;;;;37.40;5.50;;;7.80;99.90;;;;;;5027415;28;20045;-62
2022/12/24 05:52:49;;;;;;;20.15;3.42;;;7.70;99.90;;;;;;5027628;28;20491;-62
2022/12/24 05:55:14;;;;;;;30.85;5.43;;;7.70;99.90;;;;;;5027914;28;20049;-63
2022/12/24 05:57:41;;;;;;;34.80;4.65;;;7.70;99.90;;;;;;5027398;28;20604;-62
2022/12/24 06:00:07;;;;;;;32.60;6.60;;;7.70;99.90;;;;;;5028201;28;20045;-62
2022/12/24 06:02:33;;;;;;;36.38;4.68;;;7.60;99.90;;;;;;5009225;28;20041;-62
2022/12/24 06:04:58;;;;;;;46.80;5.00;;;7.60;99.90;;;;;;5028129;28;20045;-63
2022/12/24 06:07:25;;;;;;;43.83;5.53;;;7.60;99.90;;;;;;5009353;28;20111;-63
2022/12/24 06:09:51;;;;;;;33.67;4.32;;;7.60;99.90;;;;;;5027288;28;20602;-63
2022/12/24 06:12:16;;;;;;;44.40;4.75;;;7.50;99.90;;;;;;5009928;28;20103;-62
2022/12/24 06:14:42;;;;;;;42.20;5.25;;;7.50;99.90;;;;;;5009015;28;20159;-63
2022/12/24 06:17:08;;;;;;;49.67;5.50;;;7.50;99.90;;;;;;5028244;28;20115;-63
2022/12/24 06:19:34;;;;;;;61.00;6.60;;;7.60;99.90;;;;;;5026189;28;20082;-63
2022/12/24 06:21:59;;;;;;;34.67;4.70;;;7.60;99.90;;;;;;5027876;28;20496;-62
2022/12/24 06:24:25;;;;;;;40.42;5.38;;;7.60;99.90;;;;;;5009240;28;20049;-63
2022/12/24 06:26:51;;;;;;;37.97;4.45;;;7.60;99.90;;;;;;5026300;28;20050;-63
2022/12/24 06:29:17;;;;;;;56.75;6.35;;;7.70;99.90;;;;;;5008828;28;20107;-62
2022/12/24 06:31:42;;;;;;;53.47;6.80;;;7.80;99.90;;;;;;5026884;28;20049;-62
2022/12/24 06:34:08;;;;;;;53.03;6.15;;;7.80;99.90;;;;;;5027404;28;20530;-62
2022/12/24 06:36:34;;;;;;;47.63;6.25;;;7.80;99.90;;;;;;5026618;28;20095;-63
2022/12/24 06:39:00;;;;;;;43.80;4.95;;;7.80;99.90;;;;;;5009608;28;20049;-62
2022/12/24 06:41:25;;;;;;;44.92;5.93;;;7.90;99.90;;;;;;5026569;28;20091;-62
2022/12/24 06:43:52;;;;;;;56.33;6.80;;;7.90;99.90;;;;;;5008471;28;20049;-63
2022/12/24 06:46:18;;;;;;;57.97;5.90;;;7.80;99.90;;;;;;5026656;28;20076;-63
2022/12/24 06:48:45;;;;;;;67.70;7.65;;;7.80;99.90;;;;;;5026859;28;20036;-62
2022/12/24 06:51:13;;;;;;;55.95;6.05;;;7.80;99.90;;;;;;5026575;28;20037;-62
2022/12/24 06:53:38;;;;;;;50.90;6.78;;;7.80;99.90;;;;;;5026399;28;20519;-62
2022/12/24 06:56:09;;;;;;;54.88;5.68;;;7.90;99.90;;;;;;5009194;28;20050;-63
2022/12/24 06:58:36;;;;;;;59.30;5.93;;;7.90;99.90;;;;;;5024222;28;20423;-62
2022/12/24 07:01:03;;;;;;;52.05;5.90;;;7.90;99.90;;;;;;5009603;28;20443;-63
2022/12/24 07:03:30;;;;;;;55.67;5.55;;;7.90;99.90;;;;;;5008662;28;20049;-62
2022/12/24 07:05:56;;;;;;;47.03;5.25;;;7.90;99.90;;;;;;5008788;28;20085;-63
2022/12/24 07:08:22;;;;;;;68.15;7.30;;;7.90;99.90;;;;;;5026231;28;20045;-63
2022/12/24 07:10:49;;;;;;;68.25;6.97;;;8.00;99.90;;;;;;5008044;28;20594;-63
2022/12/24 07:13:16;;;;;;;55.00;6.63;;;8.00;99.90;;;;;;5015601;28;20038;-62
2022/12/24 07:15:41;;;;;;;48.55;6.00;;;8.00;99.90;;;;;;5010415;28;20046;-62
2022/12/24 07:18:07;;;;;;;67.53;7.55;;;8.00;99.90;;;;;;5011716;28;20044;-63
2022/12/24 07:20:33;;;;;;;53.95;5.50;;;8.00;99.90;;;;;;5013518;28;20081;-63
2022/12/24 07:23:02;;;;;;;73.10;6.60;;;8.00;99.90;;;;;;4993868;28;20507;-62
2022/12/24 07:25:28;;;;;;;62.45;5.90;;;8.00;99.90;;;;;;5025307;28;20123;-62
2022/12/24 07:27:54;;;;;;;51.67;5.53;;;8.00;99.90;;;;;;5025354;28;20478;-62
2022/12/24 07:30:19;;;;;;;58.10;6.40;;;8.00;99.90;;;;;;5026178;28;20041;-62
2022/12/24 07:32:45;;;;;;;64.30;6.13;;;8.00;99.90;;;;;;4991629;28;20456;-62
2022/12/24 07:35:11;;;;;;;54.08;5.72;;;8.10;99.90;;;;;;5008465;28;20045;-62
2022/12/24 07:37:37;;;;;;;67.15;7.00;;;8.10;99.90;;;;;;5025693;28;20045;-63
2022/12/24 07:40:06;;;;;;;63.20;6.90;;;8.10;99.90;;;;;;4991877;28;20042;-63
2022/12/24 07:42:33;;;;;;;43.17;4.38;;;8.10;99.90;;;;;;5025542;28;20522;-62
2022/12/24 07:44:58;;;;;;;72.75;7.57;;;8.10;99.90;;;;;;5025312;28;20512;-63
2022/12/24 07:47:24;;;;;;;60.22;6.50;;;8.10;99.90;;;;;;5025441;28;20075;-63
2022/12/24 07:49:51;;;;;;;57.08;7.30;;;8.10;99.90;;;;;;5025153;28;20049;-63
2022/12/24 07:52:17;;;;;;;72.00;7.47;;;8.10;99.90;;;;;;5008508;28;20073;-63
2022/12/24 07:54:44;;;;;;;71.22;5.93;;;8.10;99.90;;;;;;5025480;28;20080;-63
2022/12/24 07:57:09;;;;;;;76.10;6.65;;;8.10;99.90;;;;;;5023148;28;20099;-62
2022/12/24 07:59:35;;;;;;;60.38;8.45;;;8.10;99.90;;;;;;5025392;28;20045;-63
2022/12/24 08:02:01;;;;;;;70.25;7.38;;;8.20;99.90;;;;;;4989284;28;20044;-62
2022/12/24 08:04:29;;;;;;;50.47;5.75;;;8.10;99.90;;;;;;5025450;28;20048;-63
2022/12/24 08:06:55;;;;;;;68.10;7.05;;;8.20;99.90;;;;;;5006613;28;20050;-63
2022/12/24 08:09:21;;;;;;;57.83;6.65;;;8.20;99.90;;;;;;5018899;28;20052;-63
2022/12/24 08:11:47;;;;;;;59.00;7.30;;;8.20;99.90;;;;;;5011188;28;20607;-62
2022/12/24 08:14:13;;;;;;;51.53;5.38;;;8.20;99.90;;;;;;4992372;28;20096;-62
2022/12/24 08:16:38;;;;;;;64.95;6.25;;;8.20;99.90;;;;;;5011709;28;20050;-63
2022/12/24 08:19:04;;;;;;;51.72;6.00;;;8.20;99.90;;;;;;5019921;28;20084;-63
2022/12/24 08:21:30;;;;;;;61.33;6.43;;;8.20;99.90;;;;;;5025415;28;20042;-62
2022/12/24 08:23:56;;;;;;;56.50;6.50;;;8.30;99.90;;;;;;5025468;28;20056;-62
2022/12/24 08:26:22;;;;;;;67.15;9.10;;;8.30;99.90;;;;;;5007641;28;20041;-63
2022/12/24 08:28:47;;;;;;;52.10;5.70;;;8.30;99.90;;;;;;5022536;28;20134;-63
2022/12/24 08:31:14;;;;;;;49.28;5.28;;;8.30;99.90;;;;;;5025081;28;20488;-63
2022/12/24 08:33:40;;;;;;;45.58;5.65;;;8.30;99.90;;;;;;5007271;28;20436;-63
2022/12/24 08:36:06;;;;;;;64.57;6.50;;;8.40;99.90;;;;;;5024857;28;20052;-63
2022/12/24 08:38:32;;;;;;;55.15;6.38;;;8.40;99.90;;;;;;5025089;28;20098;-63
2022/12/24 08:40:57;;;;;;;48.95;5.75;;;8.40;99.90;;;;;;5025114;28;20049;-63
2022/12/24 08:43:25;;;;;;;59.03;5.88;;;8.40;99.90;;;;;;5001822;28;20475;-63
2022/12/24 08:45:52;;;;;;;43.60;6.38;;;8.40;99.90;;;;;;5025286;28;20068;-63
2022/12/24 08:48:18;;;;;;;49.88;5.60;;;8.40;99.90;;;;;;5007923;28;20052;-63
2022/12/24 08:50:44;;;;;;;58.80;6.47;;;8.50;99.90;;;;;;5028797;28;20057;-62
2022/12/24 08:53:10;;;;;;;53.97;7.10;;;8.50;99.90;;;;;;5029249;28;20232;-62
2022/12/24 08:55:36;;;;;;;42.20;7.32;;;8.50;99.90;;;;;;5028594;28;20530;-62
2022/12/24 08:58:02;;;;;;;55.67;5.70;;;8.60;99.90;;;;;;4998048;28;20592;-62
2022/12/24 09:00:28;;;;;;;51.60;5.65;;;8.60;99.90;;;;;;5018425;28;20132;-62
2022/12/24 09:02:55;;;;;;;35.65;5.30;;;8.60;99.90;;;;;;5022071;28;20041;-62
2022/12/24 09:05:21;;;;;;;52.42;5.72;;;8.60;99.90;;;;;;5022155;28;20041;-62
2022/12/24 09:07:47;;;;;;;56.15;6.55;;;8.60;99.90;;;;;;5010690;28;20041;-62
2022/12/24 09:10:13;;;;;;;52.72;5.85;;;8.60;99.90;;;;;;5011954;28;20073;-62
2022/12/24 09:12:39;;;;;;;46.20;6.90;;;8.60;99.90;;;;;;5007846;28;20049;-62
2022/12/24 09:15:06;;;;;;;33.03;4.68;;;8.70;99.90;;;;;;5009759;28;20042;-62
2022/12/24 09:17:34;;;;;;;55.65;6.75;;;8.70;99.90;;;;;;5009530;28;20029;-62
2022/12/24 09:19:59;;;;;;;45.25;5.43;;;8.70;99.90;;;;;;5027250;28;20456;-62
2022/12/24 09:22:25;;;;;;;57.53;6.13;;;8.70;99.90;;;;;;5027928;28;20217;-62
2022/12/24 09:24:53;;;;;;;49.50;5.90;;;8.70;99.90;;;;;;5027625;28;20049;-62
2022/12/24 09:27:19;;;;;;;36.05;5.57;;;8.80;99.90;;;;;;5020609;28;20147;-62
2022/12/24 09:29:45;;;;;;;47.83;6.18;;;8.80;99.90;;;;;;5028274;28;20041;-62
2022/12/24 09:32:10;;;;;;;45.10;4.90;;;8.80;99.90;;;;;;5010056;28;20903;-62
2022/12/24 09:34:36;;;;;;;42.63;5.15;;;8.80;99.90;;;;;;5027523;28;20049;-62
2022/12/24 09:37:02;;;;;;;41.10;5.97;;;8.80;99.90;;;;;;5027915;28;20056;-62
2022/12/24 09:39:28;;;;;;;50.83;6.28;;;8.90;99.90;;;;;;5015730;28;20042;-62
2022/12/24 09:42:22;;;;;;;35.58;5.65;;;8.90;99.90;;;;;;5027770;28;20128;-62
2022/12/24 09:44:57;;;;;;;47.45;6.13;;;8.90;99.90;;;;;;5024261;28;20073;-62
2022/12/24 09:47:38;;;;;;;31.23;5.13;;;8.90;99.90;;;;;;5026859;28;20074;-62
2022/12/24 09:50:24;;;;;;;41.17;5.13;;;9.00;99.90;;;;;;5009551;28;20038;-62
2022/12/24 09:52:53;;;;;;;46.67;5.68;;;9.10;99.90;;;;;;5028297;28;20049;-62
2022/12/24 09:55:29;;;;;;;50.15;5.18;;;9.10;99.90;;;;;;5026932;28;20507;-62
2022/12/24 09:57:59;;;;;;;33.17;5.22;;;9.10;99.90;;;;;;5027538;28;20664;-62
2022/12/24 10:00:30;;;;;;;49.77;5.43;;;9.20;99.90;;;;;;5022952;28;20056;-62
2022/12/24 10:02:56;;;;;;;51.70;6.00;;;9.20;99.90;;;;;;5027499;28;20057;-62
2022/12/24 10:05:59;;;;;;;52.63;7.88;;;9.20;99.90;;;;;;4984020;28;20040;-62
2022/12/24 10:08:37;;;;;;;42.85;5.60;;;9.20;99.90;;;;;;4990108;28;20144;-62
2022/12/24 10:11:35;;;;;;;42.67;5.63;;;9.30;99.90;;;;;;5023969;28;20512;-62
2022/12/24 10:14:08;;;;;;;46.05;5.72;;;9.30;99.90;;;;;;4991437;28;20059;-62
2022/12/24 10:16:43;;;;;;;42.75;5.60;;;9.30;99.90;;;;;;5026901;28;20049;-62
2022/12/24 10:19:38;;;;;;;39.65;5.57;;;9.30;99.90;;;;;;5026147;28;20361;-62
2022/12/24 10:22:35;;;;;;;50.03;6.35;;;9.20;99.90;;;;;;5018677;28;20041;-62
2022/12/24 10:25:05;;;;;;;49.50;6.60;;;9.20;99.90;;;;;;5009428;28;20064;-62
2022/12/24 10:27:40;;;;;;;44.45;5.70;;;9.20;99.90;;;;;;5026832;28;20487;-62
2022/12/24 10:30:14;;;;;;;44.90;5.15;;;9.20;99.90;;;;;;5026252;28;20037;-62
2022/12/24 10:32:40;;;;;;;37.58;5.53;;;9.30;99.90;;;;;;5026451;28;20089;-63
2022/12/24 10:35:16;;;;;;;54.75;7.10;;;9.40;99.90;;;;;;5024044;28;20135;-62
2022/12/24 10:37:45;;;;;;;43.33;7.40;;;9.50;99.90;;;;;;5026814;28;20498;-62
2022/12/24 10:40:22;;;;;;;49.67;7.65;;;9.50;99.90;;;;;;5019344;28;20049;-62
2022/12/24 10:42:48;;;;;;;37.75;4.93;;;9.50;99.90;;;;;;5008374;28;20107;-62
2022/12/24 10:45:17;;;;;;;50.75;6.40;;;9.50;99.90;;;;;;5018856;28;20037;-62
2022/12/24 10:47:46;;;;;;;53.57;5.50;;;9.50;99.90;;;;;;5025081;28;20045;-62
2022/12/24 10:50:20;;;;;;;44.45;5.53;;;9.40;99.90;;;;;;5026732;28;20071;-62
2022/12/24 10:52:49;;;;;;;48.60;5.93;;;9.40;99.90;;;;;;4992163;28;20057;-62
2022/12/24 10:55:18;;;;;;;43.15;6.05;;;9.40;99.90;;;;;;5025904;28;20400;-62
2022/12/24 10:57:46;;;;;;;48.13;6.03;;;9.50;99.90;;;;;;5026547;28;20045;-62
2022/12/24 11:00:21;;;;;;;38.85;5.22;;;9.50;99.90;;;;;;5022977;28;20052;-62
2022/12/24 11:02:48;;;;;;;49.17;5.80;;;9.60;99.90;;;;;;5025967;28;20044;-62
2022/12/24 11:05:33;;;;;;;58.15;7.50;;;9.60;99.90;;;;;;5025771;28;20041;-62
2022/12/24 11:08:16;;;;;;;43.92;6.20;;;9.60;99.90;;;;;;5026486;28;20052;-62
2022/12/24 11:11:05;;;;;;;42.05;6.38;;;9.60;99.90;;;;;;5026419;28;20076;-62
2022/12/24 11:13:36;;;;;;;49.40;6.68;;;9.60;99.90;;;;;;5024886;28;20041;-62
2022/12/24 11:16:13;;;;;;;41.15;5.15;;;9.60;99.90;;;;;;5026240;28;20037;-62
2022/12/24 11:19:05;;;;;;;43.10;5.43;;;9.60;99.90;;;;;;5013101;28;20053;-62
2022/12/24 11:21:34;;;;;;;38.13;5.15;;;9.60;99.90;;;;;;5019436;28;20077;-62
2022/12/24 11:24:31;;;;;;;44.05;5.20;;;9.70;99.90;;;;;;4998513;28;20052;-62
2022/12/24 11:27:22;;;;;;;39.55;6.10;;;9.70;99.90;;;;;;5018106;28;20200;-62
2022/12/24 11:29:48;;;;;;;53.88;6.25;;;9.70;99.90;;;;;;5010353;28;20048;-62
2022/12/24 11:32:21;;;;;;;46.40;6.22;;;9.70;99.90;;;;;;5003060;28;20034;-62
2022/12/24 11:34:48;;;;;;;49.33;5.20;;;9.70;99.90;;;;;;5010369;28;20037;-62
2022/12/24 11:37:23;;;;;;;36.90;5.18;;;9.80;99.90;;;;;;5006917;28;20050;-62
2022/12/24 11:39:59;;;;;;;46.75;6.50;;;9.80;99.90;;;;;;5023253;28;20772;-62
2022/12/24 11:42:31;;;;;;;53.38;6.68;;;9.80;99.90;;;;;;5007756;28;20495;-62
2022/12/24 11:44:59;;;;;;;50.13;5.78;;;9.90;99.90;;;;;;5025491;28;20411;-62
2022/12/24 11:47:36;;;;;;;47.38;6.18;;;9.90;99.90;;;;;;5025043;28;20488;-62
2022/12/24 11:50:37;;;;;;;31.88;3.67;;;9.90;99.90;;;;;;5025852;28;20140;-62
2022/12/24 11:53:03;;;;;;;45.88;5.00;;;9.80;99.90;;;;;;4955417;28;20057;-62
2022/12/24 11:55:49;;;;;;;36.83;5.65;;;9.80;99.90;;;;;;5005443;28;20053;-62
2022/12/24 11:58:30;;;;;;;40.85;5.47;;;9.70;99.90;;;;;;5024875;28;20049;-63
2022/12/24 12:01:24;;;;;;;40.65;5.95;;;9.70;99.90;;;;;;5016054;28;20049;-62
2022/12/24 12:03:54;;;;;;;40.88;5.82;;;9.80;99.90;;;;;;5006845;28;20053;-62
2022/12/24 12:06:35;;;;;;;47.13;5.93;;;9.80;99.90;;;;;;5007361;28;20041;-63
2022/12/24 12:09:11;;;;;;;30.85;4.05;;;9.80;99.90;;;;;;5025241;28;20045;-62
2022/12/24 12:11:41;;;;;;;49.75;5.32;;;9.80;99.90;;;;;;5025430;28;20474;-62
2022/12/24 12:14:21;;;;;;;47.83;5.55;;;9.80;99.90;;;;;;5025040;28;20053;-62
2022/12/24 12:17:08;;;;;;;44.57;5.83;;;9.80;99.90;;;;;;5013397;28;20053;-62
2022/12/24 12:19:53;;;;;;;26.88;4.22;;;9.90;99.90;;;;;;4980182;28;20053;-62
2022/12/24 12:22:25;;;;;;;29.90;5.03;;;9.80;99.90;;;;;;4989277;28;20108;-62
2022/12/24 12:24:54;;;;;;;32.97;3.95;;;9.80;99.90;;;;;;5004067;28;20034;-62
2022/12/24 12:27:50;;;;;;;37.63;4.10;;;9.80;99.90;;;;;;4986630;28;20044;-63
2022/12/24 12:30:19;;;;;;;32.42;5.20;;;9.80;99.90;;;;;;5019386;28;20058;-62
2022/12/24 12:32:54;;;;;;;32.08;4.15;;;9.80;99.90;;;;;;5007666;28;20132;-62
2022/12/24 12:35:32;;;;;;;31.75;4.38;;;9.80;99.90;;;;;;5002682;28;20140;-62
2022/12/24 12:38:08;;;;;;;33.53;4.43;;;9.70;99.90;;;;;;5013086;28;20042;-62
2022/12/24 12:41:04;;;;;;;28.75;4.50;;;9.70;99.90;;;;;;5026079;28;20656;-62
2022/12/24 12:43:48;;;;;;;30.75;5.03;;;9.80;99.90;;;;;;5011846;28;20041;-63
2022/12/24 12:46:16;;;;;;;34.92;4.70;;;9.80;99.90;;;;;;5013784;28;20042;-62
2022/12/24 12:49:01;;;;;;;29.25;4.03;;;9.80;99.90;;;;;;5015544;28;20484;-62
2022/12/24 12:51:35;;;;;;;31.65;4.18;;;9.80;99.90;;;;;;5014193;28;20049;-62
2022/12/24 12:54:12;;;;;;;39.25;5.32;;;9.70;99.90;;;;;;5011617;28;20050;-62
2022/12/24 12:56:43;;;;;;;36.30;4.93;;;9.70;99.90;;;;;;5011665;28;20053;-62
2022/12/24 12:59:33;;;;;;;31.15;4.28;;;9.70;99.90;;;;;;5019240;28;20045;-62
2022/12/24 13:02:08;;;;;;;;;;;9.70;99.90;;;;;;5019870;28;20088;-63
2022/12/24 13:04:46;;;;;;;39.10;4.38;;;9.70;99.90;;;;;;4999768;28;20459;-62
2022/12/24 13:07:39;;;;;;;27.00;3.25;;;9.70;99.90;;;;;;5006259;28;20056;-62
2022/12/24 13:10:08;;;;;;;29.73;4.63;;;9.70;99.90;;;;;;5017989;28;20085;-62